Time;durP1;ratioP1;P1;durP2;ratioP2;P2;SDS_P1;SDS_P2;PMS_P1;PMS_P2;Temp;Humidity;BMP_temperature;BMP_pressure;BME280_temperature;BME280_humidity;BME280_pressure;Samples;Min_cycle;Max_cycle;Signal;HPM_P1;HPM_P2
2021/10/16 00:00:23;;;;;;;47.85;32.60;;;;;;;;;;5039232;28;20030;-77
2021/10/16 00:02:49;;;;;;;48.53;32.63;;;;;;;;;;5040696;28;20037;-76
2021/10/16 00:05:15;;;;;;;44.38;31.00;;;;;;;;;;5040017;28;20422;-77
2021/10/16 00:07:41;;;;;;;42.33;30.75;;;;;;;;;;5037406;28;20046;-78
2021/10/16 00:10:08;;;;;;;44.65;31.15;;;;;;;;;;5039463;28;20029;-78
2021/10/16 00:12:34;;;;;;;45.17;31.20;;;;;;;;;;5038051;28;20029;-70
2021/10/16 00:15:02;;;;;;;42.28;30.63;;;;;;;;;;5038419;28;20063;-73
2021/10/16 00:17:28;;;;;;;45.35;31.50;;;;;;;;;;5038652;28;20640;-77
2021/10/16 00:19:55;;;;;;;42.13;30.80;;;;;;;;;;5041607;28;20087;-78
2021/10/16 00:22:21;;;;;;;43.55;32.67;;;;;;;;;;5043931;28;20479;-78
2021/10/16 00:24:48;;;;;;;46.70;31.83;;;;;;;;;;5044563;28;20034;-76
2021/10/16 00:27:14;;;;;;;47.65;33.35;;;;;;;;;;5040800;28;20029;-78
2021/10/16 00:29:40;;;;;;;46.45;33.67;;;;;;;;;;5041328;28;20041;-78
2021/10/16 00:32:06;;;;;;;53.17;35.80;;;;;;;;;;5039669;28;20029;-78
2021/10/16 00:34:32;;;;;;;52.03;35.53;;;;;;;;;;5041998;28;20029;-76
2021/10/16 00:37:01;;;;;;;54.85;36.08;;;;;;;;;;5041040;28;20029;-77
2021/10/16 00:39:27;;;;;;;53.60;37.92;;;;;;;;;;5042180;28;20025;-75
2021/10/16 00:41:53;;;;;;;52.40;36.72;;;;;;;;;;5044529;28;20028;-71
2021/10/16 00:44:22;;;;;;;58.42;38.55;;;;;;;;;;5024245;28;20128;-76
2021/10/16 00:46:50;;;;;;;58.58;39.10;;;;;;;;;;5022917;28;20018;-76
2021/10/16 00:49:16;;;;;;;54.72;37.95;;;;;;;;;;5042242;28;20025;-78
2021/10/16 00:51:43;;;;;;;56.70;38.97;;;;;;;;;;5043610;28;20028;-72
2021/10/16 00:54:10;;;;;;;61.03;40.60;;;;;;;;;;5042144;28;20031;-68
2021/10/16 00:56:36;;;;;;;54.38;37.60;;;;;;;;;;5039370;28;20033;-78
2021/10/16 00:59:05;;;;;;;57.72;39.80;;;;;;;;;;5041842;28;20026;-75
2021/10/16 01:01:31;;;;;;;56.45;38.47;;;;;;;;;;5043230;28;20526;-75
2021/10/16 01:03:58;;;;;;;56.65;38.85;;;;;;;;;;5041488;28;20452;-79
2021/10/16 01:06:24;;;;;;;58.58;38.60;;;;;;;;;;5024595;28;20097;-76
2021/10/16 01:08:52;;;;;;;50.63;35.95;;;;;;;;;;5038844;28;21486;-75
2021/10/16 01:11:20;;;;;;;52.33;36.38;;;;;;;;;;5039701;28;20091;-77
2021/10/16 01:13:46;;;;;;;55.17;36.88;;;;;;;;;;5042599;28;20029;-78
2021/10/16 01:16:12;;;;;;;59.30;38.20;;;;;;;;;;5042227;28;20129;-77
2021/10/16 01:18:38;;;;;;;54.15;36.22;;;;;;;;;;5042167;28;20479;-74
2021/10/16 01:21:09;;;;;;;57.45;38.53;;;;;;;;;;5044105;28;20053;-75
2021/10/16 01:23:36;;;;;;;58.92;39.55;;;;;;;;;;5024336;28;20047;-78
2021/10/16 01:26:05;;;;;;;61.92;41.00;;;;;;;;;;5040858;28;20041;-76
2021/10/16 01:28:32;;;;;;;64.68;42.28;;;;;;;;;;5037749;28;20061;-76
2021/10/16 01:30:58;;;;;;;59.80;40.92;;;;;;;;;;5037408;28;20044;-69
2021/10/16 01:33:28;;;;;;;61.30;41.33;;;;;;;;;;5036898;28;20036;-77
2021/10/16 01:35:58;;;;;;;59.83;40.85;;;;;;;;;;5036677;28;20479;-73
2021/10/16 01:38:24;;;;;;;63.38;41.30;;;;;;;;;;5040955;28;20034;-76
2021/10/16 01:40:50;;;;;;;57.28;39.80;;;;;;;;;;5044990;28;20022;-77
2021/10/16 01:43:16;;;;;;;60.33;40.22;;;;;;;;;;5045078;28;20033;-78
2021/10/16 01:45:42;;;;;;;78.50;46.05;;;;;;;;;;5044022;28;20040;-70
2021/10/16 01:48:08;;;;;;;75.97;45.45;;;;;;;;;;5046381;28;20527;-78
2021/10/16 01:50:39;;;;;;;75.82;47.50;;;;;;;;;;5043551;28;20032;-78
2021/10/16 01:53:09;;;;;;;76.10;48.05;;;;;;;;;;5043378;28;20115;-76
2021/10/16 01:55:35;;;;;;;93.95;52.85;;;;;;;;;;5047541;28;20025;-75
2021/10/16 01:58:05;;;;;;;84.45;51.13;;;;;;;;;;5048311;28;20121;-78
2021/10/16 02:00:31;;;;;;;83.20;52.33;;;;;;;;;;5045251;28;20040;-78
2021/10/16 02:02:57;;;;;;;86.63;51.90;;;;;;;;;;5045660;28;20033;-79
2021/10/16 02:05:23;;;;;;;77.47;48.92;;;;;;;;;;5041366;28;20057;-77
2021/10/16 02:07:50;;;;;;;72.15;46.50;;;;;;;;;;5041123;28;20205;-77
2021/10/16 02:10:17;;;;;;;76.22;44.70;;;;;;;;;;5022729;28;20021;-77
2021/10/16 02:12:43;;;;;;;76.78;44.55;;;;;;;;;;5041052;28;20036;-77
2021/10/16 02:15:09;;;;;;;71.00;43.20;;;;;;;;;;5039434;28;20030;-77
2021/10/16 02:17:36;;;;;;;72.90;45.08;;;;;;;;;;5037462;28;20028;-77
2021/10/16 02:20:02;;;;;;;68.10;43.08;;;;;;;;;;5037861;28;20037;-77
2021/10/16 02:22:30;;;;;;;68.10;44.33;;;;;;;;;;5038714;28;20095;-77
2021/10/16 02:24:56;;;;;;;74.68;44.35;;;;;;;;;;5038142;28;20022;-77
2021/10/16 02:27:23;;;;;;;71.93;44.38;;;;;;;;;;5016353;28;20462;-69
2021/10/16 02:29:52;;;;;;;71.15;43.40;;;;;;;;;;5037763;28;20152;-66
2021/10/16 02:32:20;;;;;;;67.75;44.85;;;;;;;;;;5038610;28;20050;-76
2021/10/16 02:34:49;;;;;;;68.72;44.47;;;;;;;;;;5040776;28;20017;-69
2021/10/16 02:37:15;;;;;;;70.85;44.30;;;;;;;;;;5040531;28;20032;-73
2021/10/16 02:39:41;;;;;;;72.03;45.35;;;;;;;;;;5039733;28;20022;-75
2021/10/16 02:42:08;;;;;;;68.85;43.97;;;;;;;;;;5039125;28;20032;-78
2021/10/16 02:44:34;;;;;;;71.68;45.03;;;;;;;;;;5038219;28;20124;-77
2021/10/16 02:47:00;;;;;;;70.28;44.95;;;;;;;;;;5037769;28;20474;-75
2021/10/16 02:49:27;;;;;;;67.40;43.85;;;;;;;;;;5040340;28;20030;-78
2021/10/16 02:51:53;;;;;;;76.43;44.35;;;;;;;;;;5039194;28;20027;-77
2021/10/16 02:54:19;;;;;;;64.45;41.53;;;;;;;;;;5040024;28;20021;-77
2021/10/16 02:56:45;;;;;;;60.20;41.35;;;;;;;;;;5037786;28;20037;-75
2021/10/16 02:59:11;;;;;;;60.47;41.40;;;;;;;;;;5039227;28;20084;-77
2021/10/16 03:01:39;;;;;;;76.90;46.22;;;;;;;;;;5040031;28;20386;-74
2021/10/16 03:04:05;;;;;;;63.75;41.33;;;;;;;;;;5043738;28;20029;-73
2021/10/16 03:06:31;;;;;;;66.43;43.60;;;;;;;;;;5043228;28;20030;-78
2021/10/16 03:08:58;;;;;;;59.17;40.08;;;;;;;;;;5040052;28;20022;-75
2021/10/16 03:11:24;;;;;;;64.57;43.42;;;;;;;;;;5036005;28;20025;-74
2021/10/16 03:13:50;;;;;;;63.35;41.65;;;;;;;;;;5035788;28;20029;-73
2021/10/16 03:16:17;;;;;;;67.47;43.25;;;;;;;;;;5036165;28;20045;-76
2021/10/16 03:18:43;;;;;;;60.92;41.90;;;;;;;;;;5036361;28;20033;-73
2021/10/16 03:21:09;;;;;;;61.92;41.08;;;;;;;;;;5037213;28;20044;-73
2021/10/16 03:23:36;;;;;;;60.55;40.97;;;;;;;;;;5020374;28;20521;-69
2021/10/16 03:26:02;;;;;;;67.63;44.55;;;;;;;;;;5037701;28;20044;-74
2021/10/16 03:28:28;;;;;;;61.75;41.13;;;;;;;;;;5037342;28;20050;-77
2021/10/16 03:30:54;;;;;;;64.80;41.58;;;;;;;;;;5041152;28;20025;-78
2021/10/16 03:33:20;;;;;;;66.10;43.05;;;;;;;;;;5042932;28;20479;-77
2021/10/16 03:35:46;;;;;;;63.78;44.20;;;;;;;;;;5045315;28;20037;-73
2021/10/16 03:38:13;;;;;;;64.78;43.13;;;;;;;;;;5044285;28;20029;-77
2021/10/16 03:40:39;;;;;;;65.32;42.55;;;;;;;;;;5045164;28;20037;-78
2021/10/16 03:43:05;;;;;;;62.65;41.78;;;;;;;;;;5041701;28;20431;-78
2021/10/16 03:45:31;;;;;;;71.88;43.88;;;;;;;;;;5037806;28;20030;-78
2021/10/16 03:47:57;;;;;;;61.92;41.28;;;;;;;;;;5035472;28;20048;-75
2021/10/16 03:50:23;;;;;;;72.43;44.78;;;;;;;;;;5035528;28;20490;-75
2021/10/16 03:52:50;;;;;;;66.65;42.65;;;;;;;;;;5037858;28;20022;-76
2021/10/16 03:55:16;;;;;;;73.22;45.08;;;;;;;;;;5036315;28;20030;-73
2021/10/16 03:57:42;;;;;;;69.40;45.38;;;;;;;;;;5036382;28;20026;-75
2021/10/16 04:00:13;;;;;;;65.90;42.67;;;;;;;;;;5036967;28;20501;-78
2021/10/16 04:02:40;;;;;;;65.78;42.92;;;;;;;;;;5034673;28;20430;-77
2021/10/16 04:05:07;;;;;;;77.30;45.03;;;;;;;;;;5036431;28;20076;-77
2021/10/16 04:07:33;;;;;;;70.43;46.75;;;;;;;;;;5035390;28;20036;-73
2021/10/16 04:09:59;;;;;;;65.28;43.22;;;;;;;;;;5037659;28;20021;-78
2021/10/16 04:12:25;;;;;;;58.75;41.10;;;;;;;;;;5036631;28;20033;-77
2021/10/16 04:14:51;;;;;;;64.32;42.83;;;;;;;;;;5038312;28;20109;-78
2021/10/16 04:17:17;;;;;;;73.57;46.85;;;;;;;;;;5035789;28;20096;-77
2021/10/16 04:19:45;;;;;;;68.28;42.80;;;;;;;;;;5016295;28;20052;-76
2021/10/16 04:22:11;;;;;;;66.60;42.50;;;;;;;;;;5034978;28;20470;-76
2021/10/16 04:24:37;;;;;;;69.57;42.70;;;;;;;;;;5035906;28;20296;-77
2021/10/16 04:27:06;;;;;;;64.63;40.85;;;;;;;;;;5036345;28;20382;-73
2021/10/16 04:29:32;;;;;;;65.30;41.83;;;;;;;;;;5035567;28;20104;-77
2021/10/16 04:31:58;;;;;;;72.40;46.28;;;;;;;;;;5037158;28;20376;-78
2021/10/16 04:34:24;;;;;;;75.78;45.60;;;;;;;;;;5019130;28;20378;-76
2021/10/16 04:36:50;;;;;;;65.05;42.58;;;;;;;;;;5036612;28;20433;-77
2021/10/16 04:39:18;;;;;;;61.92;42.20;;;;;;;;;;5036968;28;20367;-78
2021/10/16 04:41:44;;;;;;;57.75;39.53;;;;;;;;;;5035520;28;20052;-74
2021/10/16 04:44:10;;;;;;;68.70;43.58;;;;;;;;;;5034631;28;20047;-77
2021/10/16 04:46:37;;;;;;;68.95;43.22;;;;;;;;;;5035849;28;20045;-77
2021/10/16 04:49:06;;;;;;;62.45;41.17;;;;;;;;;;5035568;28;20021;-76
2021/10/16 04:51:33;;;;;;;66.05;42.63;;;;;;;;;;5034962;28;20395;-68
2021/10/16 04:53:59;;;;;;;65.30;42.17;;;;;;;;;;5036118;28;20060;-77
2021/10/16 04:56:25;;;;;;;56.85;38.88;;;;;;;;;;5036446;28;20025;-76
2021/10/16 04:58:51;;;;;;;829.67;79.57;;;;;;;;;;5036237;28;20030;-73
2021/10/16 05:01:19;;;;;;;128.35;43.03;;;;;;;;;;5035246;28;20034;-72
2021/10/16 05:03:45;;;;;;;62.03;38.83;;;;;;;;;;5037167;28;20038;-69
2021/10/16 05:06:11;;;;;;;58.88;39.97;;;;;;;;;;5035532;28;20393;-77
2021/10/16 05:08:37;;;;;;;61.53;38.10;;;;;;;;;;5035309;28;20374;-77
2021/10/16 05:11:04;;;;;;;68.93;41.28;;;;;;;;;;5035730;28;20025;-77
2021/10/16 05:13:30;;;;;;;66.05;39.63;;;;;;;;;;5033620;28;20045;-77
2021/10/16 05:15:56;;;;;;;71.97;41.20;;;;;;;;;;5033746;28;20029;-77
2021/10/16 05:18:24;;;;;;;77.82;45.28;;;;;;;;;;5034522;28;20033;-77
2021/10/16 05:20:50;;;;;;;81.97;47.65;;;;;;;;;;5033732;28;20028;-77
2021/10/16 05:23:17;;;;;;;70.30;44.05;;;;;;;;;;5034868;28;20037;-77
2021/10/16 05:25:44;;;;;;;80.82;46.47;;;;;;;;;;5034826;28;20047;-65
2021/10/16 05:28:10;;;;;;;73.82;45.97;;;;;;;;;;5032644;28;20064;-76
2021/10/16 05:30:37;;;;;;;81.63;48.72;;;;;;;;;;5035011;28;20109;-78
2021/10/16 05:33:03;;;;;;;80.25;51.03;;;;;;;;;;5034688;28;20025;-77
2021/10/16 05:35:29;;;;;;;76.32;48.10;;;;;;;;;;5033817;28;20168;-77
2021/10/16 05:37:55;;;;;;;76.22;48.25;;;;;;;;;;5035100;28;20541;-78
2021/10/16 05:40:21;;;;;;;65.05;42.78;;;;;;;;;;5034596;28;20092;-73
2021/10/16 05:42:48;;;;;;;69.25;43.45;;;;;;;;;;5037791;28;20018;-77
2021/10/16 05:45:16;;;;;;;73.25;44.38;;;;;;;;;;5033771;28;20033;-73
2021/10/16 05:47:42;;;;;;;67.30;43.20;;;;;;;;;;5031478;28;20224;-73
2021/10/16 05:50:11;;;;;;;62.45;40.60;;;;;;;;;;5014913;28;20407;-78
2021/10/16 05:52:37;;;;;;;63.40;40.60;;;;;;;;;;5034181;28;20075;-77
2021/10/16 05:55:04;;;;;;;64.00;43.63;;;;;;;;;;5034894;28;20029;-70
2021/10/16 05:57:33;;;;;;;71.25;45.80;;;;;;;;;;5038682;28;20026;-74
2021/10/16 05:59:59;;;;;;;69.55;41.60;;;;;;;;;;5036286;28;20033;-73
2021/10/16 06:02:25;;;;;;;61.85;40.35;;;;;;;;;;5034065;28;20010;-77
2021/10/16 06:04:51;;;;;;;62.35;39.80;;;;;;;;;;5033210;28;20064;-77
2021/10/16 06:07:17;;;;;;;54.97;37.75;;;;;;;;;;5035645;28;20036;-75
2021/10/16 06:09:44;;;;;;;72.97;45.08;;;;;;;;;;5037133;28;20029;-68
2021/10/16 06:12:12;;;;;;;68.28;42.55;;;;;;;;;;5014596;28;20038;-73
2021/10/16 06:14:38;;;;;;;79.45;45.92;;;;;;;;;;5042823;28;20029;-64
2021/10/16 06:17:04;;;;;;;73.05;44.53;;;;;;;;;;5039397;28;20072;-66
2021/10/16 06:19:31;;;;;;;61.53;39.25;;;;;;;;;;5036880;28;20113;-71
2021/10/16 06:22:02;;;;;;;50.33;34.92;;;;;;;;;;5034793;28;20152;-72
2021/10/16 06:24:28;;;;;;;52.60;36.78;;;;;;;;;;5028022;28;20037;-70
2021/10/16 06:27:01;;;;;;;51.75;36.53;;;;;;;;;;5039658;28;20025;-76
2021/10/16 06:29:33;;;;;;;57.05;38.13;;;;;;;;;;5013036;28;20061;-74
2021/10/16 06:32:12;;;;;;;52.87;36.73;;;;;;;;;;5025143;28;20049;-74
2021/10/16 06:34:40;;;;;;;51.80;36.35;;;;;;;;;;5030052;28;20022;-75
2021/10/16 06:37:09;;;;;;;64.00;44.83;;;;;;;;;;5028015;28;20037;-72
2021/10/16 06:39:57;;;;;;;54.35;37.75;;;;;;;;;;5021760;28;20034;-70
2021/10/16 06:42:31;;;;;;;52.05;36.92;;;;;;;;;;5022557;28;20118;-74
2021/10/16 06:44:57;;;;;;;;;;;;;;;;;;5028357;28;20044;-70
2021/10/16 06:47:23;;;;;;;60.92;39.50;;;;;;;;;;5014878;28;20408;-73
2021/10/16 06:49:49;;;;;;;60.83;44.15;;;;;;;;;;5016134;28;20056;-70
2021/10/16 06:52:15;;;;;;;55.90;40.10;;;;;;;;;;5013535;28;20042;-63
2021/10/16 06:54:42;;;;;;;60.85;43.35;;;;;;;;;;5014440;28;20057;-71
2021/10/16 06:57:08;;;;;;;64.47;50.90;;;;;;;;;;5014546;28;20092;-71
2021/10/16 06:59:34;;;;;;;54.17;38.75;;;;;;;;;;5014662;28;20034;-70
2021/10/16 07:02:00;;;;;;;58.45;43.25;;;;;;;;;;5014321;28;20030;-72
2021/10/16 07:04:26;;;;;;;60.35;42.03;;;;;;;;;;5014665;28;20078;-72
2021/10/16 07:06:52;;;;;;;53.35;39.05;;;;;;;;;;5013966;28;20030;-72
2021/10/16 07:09:18;;;;;;;50.53;38.92;;;;;;;;;;5014365;28;20034;-69
2021/10/16 07:11:44;;;;;;;58.38;42.65;;;;;;;;;;5014794;28;20379;-70
2021/10/16 07:14:10;;;;;;;55.65;39.63;;;;;;;;;;5014072;28;20033;-71
2021/10/16 07:16:39;;;;;;;55.95;42.03;;;;;;;;;;5013849;28;20064;-72
2021/10/16 07:19:05;;;;;;;55.80;39.42;;;;;;;;;;5014768;28;20114;-68
2021/10/16 07:21:31;;;;;;;56.03;39.67;;;;;;;;;;5013887;28;20030;-70
2021/10/16 07:23:59;;;;;;;52.00;39.33;;;;;;;;;;5013587;28;20034;-71
2021/10/16 07:26:26;;;;;;;53.38;40.60;;;;;;;;;;5014161;28;20070;-69
2021/10/16 07:28:52;;;;;;;58.03;42.58;;;;;;;;;;5026273;28;20069;-72
2021/10/16 07:31:19;;;;;;;56.70;43.00;;;;;;;;;;5033977;28;20509;-68
2021/10/16 07:33:45;;;;;;;54.38;40.53;;;;;;;;;;5033106;28;20021;-65
2021/10/16 07:36:11;;;;;;;52.15;39.15;;;;;;;;;;5033119;28;20068;-70
2021/10/16 07:38:37;;;;;;;55.00;42.33;;;;;;;;;;5033347;28;20490;-72
2021/10/16 07:41:03;;;;;;;60.83;45.25;;;;;;;;;;5016188;28;20447;-72
2021/10/16 07:43:29;;;;;;;55.90;41.28;;;;;;;;;;5033518;28;20372;-72
2021/10/16 07:45:55;;;;;;;57.35;42.72;;;;;;;;;;5014568;28;20049;-71
2021/10/16 07:48:21;;;;;;;62.92;45.22;;;;;;;;;;5033317;28;20034;-71
2021/10/16 07:50:47;;;;;;;57.55;40.60;;;;;;;;;;5033315;28;20017;-70
2021/10/16 07:53:13;;;;;;;67.32;44.13;;;;;;;;;;5033190;28;20727;-65
2021/10/16 07:55:41;;;;;;;65.82;47.45;;;;;;;;;;5033402;28;20026;-70
2021/10/16 07:58:07;;;;;;;82.60;53.00;;;;;;;;;;5033447;28;20438;-72
2021/10/16 08:00:33;;;;;;;82.15;55.10;;;;;;;;;;5033359;28;20483;-71
2021/10/16 08:02:59;;;;;;;67.63;49.38;;;;;;;;;;5033754;28;20025;-72
2021/10/16 08:05:25;;;;;;;58.25;42.30;;;;;;;;;;5032915;28;20041;-71
2021/10/16 08:07:52;;;;;;;57.20;41.58;;;;;;;;;;5033379;28;20018;-70
2021/10/16 08:10:21;;;;;;;63.15;46.85;;;;;;;;;;5033041;28;20084;-71
2021/10/16 08:12:47;;;;;;;55.22;41.72;;;;;;;;;;5032034;28;20018;-70
2021/10/16 08:15:15;;;;;;;58.35;43.53;;;;;;;;;;5033413;28;20033;-70
2021/10/16 08:17:41;;;;;;;53.28;38.70;;;;;;;;;;5032651;28;20382;-70
2021/10/16 08:20:07;;;;;;;48.65;35.38;;;;;;;;;;5033147;28;20017;-66
2021/10/16 08:22:40;;;;;;;49.75;36.70;;;;;;;;;;5033288;28;20184;-69
2021/10/16 08:25:06;;;;;;;49.70;36.58;;;;;;;;;;5033986;28;20049;-69
2021/10/16 08:27:32;;;;;;;47.63;34.30;;;;;;;;;;5032906;28;20480;-69
2021/10/16 08:29:58;;;;;;;42.40;32.13;;;;;;;;;;5033126;28;20103;-72
2021/10/16 08:32:24;;;;;;;40.53;30.02;;;;;;;;;;5033290;28;20160;-69
2021/10/16 08:34:50;;;;;;;40.88;31.05;;;;;;;;;;5032645;28;20391;-72
2021/10/16 08:37:16;;;;;;;43.78;33.22;;;;;;;;;;5032225;28;20108;-67
2021/10/16 08:39:42;;;;;;;43.75;32.88;;;;;;;;;;5032400;28;20036;-71
2021/10/16 08:42:08;;;;;;;45.10;34.67;;;;;;;;;;5042320;28;20026;-70
2021/10/16 08:44:35;;;;;;;47.40;35.22;;;;;;;;;;5032476;28;20044;-71
2021/10/16 08:47:01;;;;;;;43.03;33.40;;;;;;;;;;5032211;28;20030;-71
2021/10/16 08:49:30;;;;;;;50.03;32.97;;;;;;;;;;5031355;28;20152;-69
2021/10/16 08:51:56;;;;;;;38.35;29.23;;;;;;;;;;5031929;28;20049;-71
2021/10/16 08:54:22;;;;;;;51.03;30.33;;;;;;;;;;5032178;28;20388;-72
2021/10/16 08:56:48;;;;;;;38.50;27.13;;;;;;;;;;5032280;28;20080;-68
2021/10/16 08:59:15;;;;;;;39.72;28.58;;;;;;;;;;5032143;28;20032;-70
2021/10/16 09:01:55;;;;;;;38.13;26.33;;;;;;;;;;5032536;28;20435;-71
2021/10/16 09:04:21;;;;;;;34.65;26.40;;;;;;;;;;5030303;28;20041;-72
2021/10/16 09:06:47;;;;;;;36.80;26.20;;;;;;;;;;5030033;28;20041;-72
2021/10/16 09:09:13;;;;;;;43.63;25.40;;;;;;;;;;5038731;28;20021;-70
2021/10/16 09:11:44;;;;;;;37.40;26.52;;;;;;;;;;5035334;28;20021;-74
2021/10/16 09:14:21;;;;;;;39.45;27.30;;;;;;;;;;5032909;28;20068;-72
2021/10/16 09:16:48;;;;;;;40.10;29.80;;;;;;;;;;5034104;28;20025;-74
2021/10/16 09:19:18;;;;;;;45.78;31.90;;;;;;;;;;5033759;28;20032;-68
2021/10/16 09:21:53;;;;;;;44.95;32.00;;;;;;;;;;5016311;28;20495;-68
2021/10/16 09:24:24;;;;;;;38.70;26.73;;;;;;;;;;5037546;28;20108;-69
2021/10/16 09:26:53;;;;;;;36.63;26.17;;;;;;;;;;5040637;28;20431;-74
2021/10/16 09:29:37;;;;;;;36.63;26.50;;;;;;;;;;5039989;28;20077;-77
2021/10/16 09:32:10;;;;;;;33.40;24.50;;;;;;;;;;5031658;28;20030;-71
2021/10/16 09:34:38;;;;;;;38.70;26.08;;;;;;;;;;5030306;28;20028;-73
2021/10/16 09:37:28;;;;;;;36.13;24.20;;;;;;;;;;5032574;28;20021;-73
2021/10/16 09:39:56;;;;;;;32.35;22.75;;;;;;;;;;5014167;28;20033;-73
2021/10/16 09:42:31;;;;;;;37.60;23.60;;;;;;;;;;5032228;28;20140;-70
2021/10/16 09:45:08;;;;;;;31.13;22.50;;;;;;;;;;5031361;28;20076;-70
2021/10/16 09:47:35;;;;;;;32.42;22.05;;;;;;;;;;5039118;28;20061;-73
2021/10/16 09:50:11;;;;;;;29.90;21.02;;;;;;;;;;5038953;28;20483;-70
2021/10/16 09:52:38;;;;;;;30.17;22.88;;;;;;;;;;5031560;28;20021;-73
2021/10/16 09:55:18;;;;;;;32.63;23.65;;;;;;;;;;5031389;28;20059;-72
2021/10/16 09:57:45;;;;;;;29.08;21.88;;;;;;;;;;5030961;28;20470;-73
2021/10/16 10:00:12;;;;;;;36.15;23.15;;;;;;;;;;5035076;28;20032;-71
2021/10/16 10:02:38;;;;;;;31.83;21.83;;;;;;;;;;5019431;28;20506;-72
2021/10/16 10:05:06;;;;;;;34.65;21.15;;;;;;;;;;5026903;28;20048;-72
2021/10/16 10:07:35;;;;;;;27.90;19.88;;;;;;;;;;5037841;28;20026;-75
2021/10/16 10:10:01;;;;;;;22.23;17.70;;;;;;;;;;5038398;28;20109;-73
2021/10/16 10:12:53;;;;;;;29.33;18.55;;;;;;;;;;5036031;28;20053;-72
2021/10/16 10:21:02;;;;;;;33.10;23.33;;;;;;;;;;4959237;28;20045;-68
2021/10/16 10:23:28;;;;;;;29.83;19.02;;;;;;;;;;4955954;28;20094;-71
2021/10/16 10:26:12;;;;;;;25.55;17.90;;;;;;;;;;4959153;28;20061;-70
2021/10/16 10:28:59;;;;;;;23.10;16.00;;;;;;;;;;4952208;28;20042;-74
2021/10/16 10:31:43;;;;;;;22.10;16.60;;;;;;;;;;4946934;28;20039;-72
2021/10/16 10:34:12;;;;;;;25.30;17.20;;;;;;;;;;4957298;28;20054;-69
2021/10/16 10:36:55;;;;;;;22.20;16.23;;;;;;;;;;4957282;28;20042;-74
2021/10/16 10:39:41;;;;;;;22.70;15.82;;;;;;;;;;4973477;28;20038;-80
2021/10/16 10:42:13;;;;;;;22.52;16.08;;;;;;;;;;4960928;29;20046;-76
2021/10/16 10:45:11;;;;;;;21.95;16.70;;;;;;;;;;4962461;29;20103;-77
2021/10/16 10:47:40;;;;;;;23.25;15.30;;;;;;;;;;4960206;28;20047;-78
2021/10/16 10:50:07;;;;;;;31.73;23.23;;;;;;;;;;4958679;29;20114;-74
2021/10/16 10:52:55;;;;;;;24.17;17.38;;;;;;;;;;4957014;29;20034;-75
2021/10/16 10:55:23;;;;;;;23.67;18.33;;;;;;;;;;5034354;28;20046;-77
2021/10/16 10:57:53;;;;;;;25.38;17.10;;;;;;;;;;5018227;28;20041;-76
2021/10/16 11:00:28;;;;;;;31.27;20.98;;;;;;;;;;5024030;28;20379;-75
2021/10/16 11:02:54;;;;;;;25.52;18.27;;;;;;;;;;5033970;28;20033;-73
2021/10/16 11:05:34;;;;;;;23.60;15.57;;;;;;;;;;5030678;28;20068;-73
2021/10/16 11:08:14;;;;;;;20.75;14.82;;;;;;;;;;5033653;28;20006;-75
2021/10/16 11:10:42;;;;;;;19.23;14.23;;;;;;;;;;5033913;28;20629;-76
2021/10/16 11:13:12;;;;;;;21.55;15.45;;;;;;;;;;5038703;28;20027;-74
2021/10/16 11:15:38;;;;;;;23.08;14.70;;;;;;;;;;5035387;28;20030;-74
2021/10/16 11:18:15;;;;;;;25.85;15.35;;;;;;;;;;5033877;28;20036;-72
2021/10/16 11:20:43;;;;;;;14.95;11.02;;;;;;;;;;5026805;28;20028;-75
2021/10/16 11:23:19;;;;;;;14.77;10.95;;;;;;;;;;5033957;28;20025;-73
2021/10/16 11:25:57;;;;;;;15.98;11.18;;;;;;;;;;5035926;28;20034;-75
2021/10/16 11:28:23;;;;;;;19.73;11.60;;;;;;;;;;5033695;28;20052;-72
2021/10/16 11:30:51;;;;;;;15.70;10.48;;;;;;;;;;5032407;28;20083;-73
2021/10/16 11:33:19;;;;;;;15.38;10.40;;;;;;;;;;5033834;28;20029;-74
2021/10/16 11:36:00;;;;;;;18.30;9.05;;;;;;;;;;5022563;28;20056;-75
2021/10/16 11:38:27;;;;;;;13.88;9.50;;;;;;;;;;5029663;28;20025;-73
2021/10/16 11:40:54;;;;;;;13.43;9.27;;;;;;;;;;5032893;28;20509;-74
2021/10/16 11:43:28;;;;;;;11.93;9.40;;;;;;;;;;5026957;28;20084;-74
2021/10/16 11:45:55;;;;;;;13.93;8.50;;;;;;;;;;5015579;28;20499;-74
2021/10/16 11:48:25;;;;;;;11.88;8.38;;;;;;;;;;4999218;28;20057;-74
2021/10/16 11:50:56;;;;;;;12.65;8.27;;;;;;;;;;5035124;28;20474;-74
2021/10/16 11:53:29;;;;;;;10.77;8.43;;;;;;;;;;5032793;28;20540;-74
2021/10/16 11:55:55;;;;;;;13.98;9.23;;;;;;;;;;5033833;28;20061;-73
2021/10/16 11:58:23;;;;;;;11.90;7.97;;;;;;;;;;5033409;28;20152;-73
2021/10/16 12:00:50;;;;;;;12.43;8.73;;;;;;;;;;5032410;28;20026;-74
2021/10/16 12:03:18;;;;;;;13.38;8.73;;;;;;;;;;5032561;28;20029;-74
2021/10/16 12:05:49;;;;;;;20.15;12.10;;;;;;;;;;5016274;28;20453;-74
2021/10/16 12:08:25;;;;;;;20.77;11.70;;;;;;;;;;5037652;28;20029;-72
2021/10/16 12:10:58;;;;;;;14.25;8.73;;;;;;;;;;5033681;28;20026;-74
2021/10/16 12:13:25;;;;;;;12.10;7.95;;;;;;;;;;5041281;28;20044;-74
2021/10/16 12:15:51;;;;;;;14.35;8.93;;;;;;;;;;5014970;28;20487;-75
2021/10/16 12:18:18;;;;;;;12.10;9.00;;;;;;;;;;5033463;28;20029;-75
2021/10/16 12:20:53;;;;;;;13.10;8.57;;;;;;;;;;5023487;28;20026;-74
2021/10/16 12:23:19;;;;;;;16.35;8.50;;;;;;;;;;5032336;28;20506;-75
2021/10/16 12:25:53;;;;;;;9.75;7.70;;;;;;;;;;5033551;28;20041;-75
2021/10/16 12:28:20;;;;;;;10.30;7.80;;;;;;;;;;5033632;28;20076;-75
2021/10/16 12:31:10;;;;;;;11.35;7.53;;;;;;;;;;5033295;28;20037;-74
2021/10/16 12:33:57;;;;;;;14.15;8.20;;;;;;;;;;5003057;28;20478;-74
2021/10/16 12:36:24;;;;;;;14.68;8.88;;;;;;;;;;5032730;28;20033;-75
2021/10/16 12:38:50;;;;;;;13.02;8.38;;;;;;;;;;5031761;28;20080;-75
2021/10/16 12:41:25;;;;;;;12.38;7.88;;;;;;;;;;5032994;28;20475;-74
2021/10/16 12:43:52;;;;;;;11.30;7.75;;;;;;;;;;5015182;28;20045;-74
2021/10/16 12:46:28;;;;;;;13.98;7.93;;;;;;;;;;5033134;28;20033;-74
2021/10/16 12:48:55;;;;;;;11.50;7.90;;;;;;;;;;5028511;28;20024;-75
2021/10/16 12:51:37;;;;;;;10.95;7.88;;;;;;;;;;5033424;28;20364;-75
2021/10/16 12:54:04;;;;;;;15.25;9.27;;;;;;;;;;5033051;28;20014;-74
2021/10/16 12:56:30;;;;;;;17.60;9.02;;;;;;;;;;5015516;28;20032;-74
2021/10/16 12:58:58;;;;;;;14.20;8.90;;;;;;;;;;5033789;28;20033;-72
2021/10/16 13:01:24;;;;;;;12.95;9.20;;;;;;;;;;5033229;28;20030;-75
2021/10/16 13:03:50;;;;;;;16.50;8.98;;;;;;;;;;5029729;28;20024;-76
2021/10/16 13:06:16;;;;;;;15.98;8.07;;;;;;;;;;5037600;28;20033;-76
2021/10/16 13:08:42;;;;;;;18.40;8.57;;;;;;;;;;5037339;28;20495;-76
2021/10/16 13:11:08;;;;;;;13.38;8.20;;;;;;;;;;5032483;28;20555;-76
2021/10/16 13:13:34;;;;;;;17.60;11.15;;;;;;;;;;5035025;28;20475;-76
2021/10/16 13:16:00;;;;;;;14.15;9.60;;;;;;;;;;5034679;28;20494;-76
2021/10/16 13:18:26;;;;;;;13.68;8.77;;;;;;;;;;5033800;28;20496;-76
2021/10/16 13:20:52;;;;;;;15.93;7.47;;;;;;;;;;5036209;28;20021;-76
2021/10/16 13:23:18;;;;;;;10.63;7.43;;;;;;;;;;5034706;28;20029;-76
2021/10/16 13:25:45;;;;;;;10.40;6.38;;;;;;;;;;5035233;28;20100;-75
2021/10/16 13:28:11;;;;;;;8.98;6.00;;;;;;;;;;5034404;28;20043;-75
2021/10/16 13:30:37;;;;;;;11.15;6.80;;;;;;;;;;5023744;28;20391;-75
2021/10/16 13:33:05;;;;;;;11.00;7.60;;;;;;;;;;5014705;28;20053;-76
2021/10/16 13:35:31;;;;;;;15.88;10.10;;;;;;;;;;5032663;28;20390;-75
2021/10/16 13:37:57;;;;;;;12.70;8.25;;;;;;;;;;5033963;28;20068;-76
2021/10/16 13:40:23;;;;;;;10.70;7.20;;;;;;;;;;5034980;28;20079;-76
2021/10/16 13:42:50;;;;;;;12.60;7.68;;;;;;;;;;5034957;28;20377;-76
2021/10/16 13:45:17;;;;;;;13.50;6.80;;;;;;;;;;5034448;28;20125;-76
2021/10/16 13:47:43;;;;;;;11.35;7.53;;;;;;;;;;5035600;28;20029;-76
2021/10/16 13:50:10;;;;;;;9.88;7.13;;;;;;;;;;5034935;28;20034;-76
2021/10/16 13:52:37;;;;;;;11.55;7.82;;;;;;;;;;5035205;28;20072;-75
2021/10/16 13:55:03;;;;;;;16.30;9.50;;;;;;;;;;5035453;28;20473;-76
2021/10/16 13:57:30;;;;;;;13.52;9.30;;;;;;;;;;5017148;28;20494;-76
2021/10/16 13:59:56;;;;;;;12.05;7.60;;;;;;;;;;5034143;28;20029;-76
2021/10/16 14:02:22;;;;;;;11.90;7.50;;;;;;;;;;5031909;28;20033;-75
2021/10/16 14:04:56;;;;;;;13.20;7.95;;;;;;;;;;5032316;28;20493;-76
2021/10/16 14:07:22;;;;;;;11.63;7.68;;;;;;;;;;5035204;28;20486;-75
2021/10/16 14:09:50;;;;;;;17.17;9.70;;;;;;;;;;5032527;28;20026;-75
2021/10/16 14:12:16;;;;;;;22.15;10.02;;;;;;;;;;5033292;28;20033;-76
2021/10/16 14:14:42;;;;;;;12.30;8.48;;;;;;;;;;5034614;28;20030;-75
2021/10/16 14:17:09;;;;;;;14.80;7.68;;;;;;;;;;5036810;28;20022;-76
2021/10/16 14:19:35;;;;;;;16.25;8.43;;;;;;;;;;5036673;28;20076;-76
2021/10/16 14:22:02;;;;;;;11.82;8.43;;;;;;;;;;5036241;28;20030;-76
2021/10/16 14:24:53;;;;;;;23.70;13.55;;;;;;;;;;5033992;28;20049;-76
2021/10/16 14:27:19;;;;;;;13.23;8.77;;;;;;;;;;5033398;28;20025;-75
2021/10/16 14:29:45;;;;;;;11.77;8.73;;;;;;;;;;5032941;28;20056;-74